createdAt,value
2018-04-17T00:02:21.838Z,1.80
2018-04-17T00:04:51.449Z,1.70
2018-04-17T00:07:21.433Z,1.90
2018-04-17T00:09:50.833Z,2.73
2018-04-17T00:12:20.404Z,4.33
2018-04-17T00:14:50.200Z,2.07
2018-04-17T00:17:19.603Z,2.20
2018-04-17T00:19:48.833Z,3.27
2018-04-17T00:22:18.875Z,2.60
2018-04-17T00:24:48.687Z,3.30
2018-04-17T00:27:18.662Z,2.20
2018-04-17T00:29:47.920Z,3.83
2018-04-17T00:32:17.520Z,1.73
2018-04-17T00:34:47.059Z,3.97
2018-04-17T00:37:16.417Z,4.50
2018-04-17T00:39:45.890Z,2.90
2018-04-17T00:42:15.182Z,3.50
2018-04-17T00:44:45.923Z,3.90
2018-04-17T00:47:15.214Z,3.17
2018-04-17T00:49:44.560Z,3.60
2018-04-17T00:52:13.973Z,3.40
2018-04-17T00:54:43.148Z,3.53
2018-04-17T00:57:12.834Z,2.90
2018-04-17T00:59:42.114Z,2.33
2018-04-17T01:02:11.617Z,3.10
2018-04-17T01:04:41.506Z,2.37
2018-04-17T01:07:11.633Z,2.63
2018-04-17T01:09:41.368Z,2.40
2018-04-17T01:12:10.826Z,2.97
2018-04-17T01:14:40.294Z,3.30
2018-04-17T01:17:09.690Z,2.13
2018-04-17T01:19:38.995Z,2.03
2018-04-17T01:22:08.007Z,2.60
2018-04-17T01:24:37.339Z,2.53
2018-04-17T01:27:06.626Z,2.13
2018-04-17T01:29:35.977Z,2.13
2018-04-17T01:32:05.878Z,3.03
2018-04-17T01:34:35.590Z,2.53
2018-04-17T01:37:05.256Z,3.60
2018-04-17T01:39:35.410Z,2.50
2018-04-17T01:42:06.238Z,3.10
2018-04-17T01:44:35.223Z,2.40
2018-04-17T01:47:05.571Z,1.80
2018-04-17T01:49:34.995Z,2.57
2018-04-17T01:52:04.302Z,2.50
2018-04-17T01:54:33.897Z,2.80
2018-04-17T01:57:05.397Z,2.57
2018-04-17T01:59:35.364Z,3.47
2018-04-17T02:02:04.563Z,3.20
2018-04-17T02:04:33.833Z,2.87
2018-04-17T02:07:03.561Z,3.30
2018-04-17T02:09:33.002Z,3.30
2018-04-17T02:12:02.517Z,3.80
2018-04-17T02:14:31.708Z,4.40
2018-04-17T02:17:02.756Z,4.30
2018-04-17T02:19:31.698Z,3.60
2018-04-17T02:22:01.406Z,4.43
2018-04-17T02:24:30.911Z,2.70
2018-04-17T02:26:59.758Z,3.07
2018-04-17T02:29:29.366Z,2.97
2018-04-17T02:31:58.587Z,2.83
2018-04-17T02:34:27.726Z,2.12
2018-04-17T02:36:56.602Z,3.25
2018-04-17T02:39:26.001Z,3.50
2018-04-17T02:41:54.946Z,2.50
2018-04-17T02:44:24.761Z,2.70
2018-04-17T02:46:55.017Z,3.50
2018-04-17T02:49:25.406Z,3.17
2018-04-17T02:51:55.325Z,3.17
2018-04-17T02:54:24.945Z,3.40
2018-04-17T02:56:54.081Z,3.22
2018-04-17T02:59:23.097Z,3.40
2018-04-17T03:01:52.639Z,3.45
2018-04-17T03:04:21.634Z,2.60
2018-04-17T03:06:51.504Z,2.75
2018-04-17T03:09:22.746Z,3.28
2018-04-17T03:11:53.791Z,2.95
2018-04-17T03:14:25.114Z,3.22
2018-04-17T03:16:56.012Z,3.12
2018-04-17T03:19:26.941Z,3.30
2018-04-17T03:21:58.640Z,3.47
2018-04-17T03:24:27.407Z,2.97
2018-04-17T03:26:57.814Z,3.20
2018-04-17T03:29:27.311Z,3.20
2018-04-17T03:31:56.712Z,2.90
2018-04-17T03:34:26.975Z,2.90
2018-04-17T03:36:56.211Z,3.37
2018-04-17T03:39:25.750Z,3.40
2018-04-17T03:41:55.525Z,3.42
2018-04-17T03:44:26.041Z,2.90
2018-04-17T03:46:55.066Z,3.28
2018-04-17T03:49:25.467Z,3.37
2018-04-17T03:51:55.090Z,2.60
2018-04-17T03:54:23.836Z,2.10
2018-04-17T03:56:53.143Z,2.53
2018-04-17T03:59:22.558Z,2.40
2018-04-17T04:01:52.022Z,2.67
2018-04-17T04:04:22.458Z,3.58
2018-04-17T04:06:51.348Z,2.50
2018-04-17T04:09:24.775Z,3.58
2018-04-17T04:11:53.772Z,3.05
2018-04-17T04:14:25.235Z,5.10
2018-04-17T04:17:06.129Z,3.78
2018-04-17T04:19:48.415Z,4.90
2018-04-17T04:22:42.551Z,5.97
2018-04-17T04:28:16.783Z,3.45
2018-04-17T04:30:46.495Z,4.57
2018-04-17T04:33:16.611Z,3.17
2018-04-17T04:35:45.868Z,4.65
2018-04-17T04:38:16.174Z,5.32
2018-04-17T04:40:45.454Z,4.65
2018-04-17T04:43:14.927Z,3.92
2018-04-17T04:45:43.968Z,5.47
2018-04-17T04:48:13.165Z,4.45
2018-04-17T04:50:43.978Z,3.90
2018-04-17T04:53:13.616Z,3.50
2018-04-17T04:55:43.098Z,3.92
2018-04-17T04:58:12.402Z,4.18
2018-04-17T05:00:43.394Z,2.92
2018-04-17T05:03:13.257Z,4.37
2018-04-17T05:05:42.573Z,2.65
2018-04-17T05:08:11.915Z,3.00
2018-04-17T05:10:41.447Z,2.83
2018-04-17T05:13:11.333Z,2.45
2018-04-17T05:15:40.851Z,3.35
2018-04-17T05:18:10.118Z,4.00
2018-04-17T05:20:39.663Z,2.72
2018-04-17T05:23:09.210Z,4.60
2018-04-17T05:25:38.830Z,4.03
2018-04-17T05:28:07.780Z,3.00
2018-04-17T05:30:37.240Z,2.70
2018-04-17T05:33:06.258Z,2.72
2018-04-17T05:35:35.633Z,2.97
2018-04-17T05:38:05.067Z,2.58
2018-04-17T05:40:35.019Z,3.92
2018-04-17T05:43:04.998Z,2.92
2018-04-17T05:45:34.465Z,3.85
2018-04-17T05:48:03.857Z,3.12
2018-04-17T05:50:33.639Z,2.45
2018-04-17T05:53:04.094Z,2.50
2018-04-17T05:55:33.772Z,2.95
2018-04-17T05:58:03.132Z,2.60
2018-04-17T06:00:32.382Z,3.40
2018-04-17T06:03:01.873Z,2.65
2018-04-17T06:05:32.123Z,2.78
2018-04-17T06:08:01.433Z,3.83
2018-04-17T06:10:30.528Z,2.22
2018-04-17T06:13:00.070Z,2.80
2018-04-17T06:15:29.547Z,2.20
2018-04-17T06:17:59.130Z,2.42
2018-04-17T06:20:28.609Z,2.10
2018-04-17T06:22:58.285Z,2.40
2018-04-17T06:25:27.584Z,3.22
2018-04-17T06:27:56.984Z,2.42
2018-04-17T06:30:26.190Z,3.40
2018-04-17T06:32:56.301Z,3.50
2018-04-17T06:35:26.151Z,3.92
2018-04-17T06:37:55.217Z,3.97
2018-04-17T06:40:24.304Z,4.50
2018-04-17T06:42:54.022Z,3.03
2018-04-17T06:45:23.070Z,3.50
2018-04-17T06:47:52.476Z,3.53
2018-04-17T06:50:21.897Z,4.15
2018-04-17T06:52:51.176Z,3.65
2018-04-17T06:55:21.629Z,3.53
2018-04-17T06:57:51.062Z,3.08
2018-04-17T07:00:20.229Z,3.60
2018-04-17T07:02:56.675Z,2.60
2018-04-17T07:05:26.642Z,3.72
2018-04-17T07:07:56.614Z,8.80
2018-04-17T07:10:26.388Z,8.30
2018-04-17T07:12:55.439Z,7.90
2018-04-17T07:15:24.965Z,5.57
2018-04-17T07:17:54.284Z,6.37
2018-04-17T07:20:23.728Z,6.25
2018-04-17T07:22:52.882Z,5.85
2018-04-17T07:25:22.354Z,6.57
2018-04-17T07:27:51.435Z,4.00
2018-04-17T07:30:20.700Z,10.23
2018-04-17T07:32:49.766Z,6.05
2018-04-17T07:35:19.618Z,6.15
2018-04-17T07:37:48.730Z,7.95
2018-04-17T07:40:18.289Z,7.20
2018-04-17T07:42:47.791Z,3.35
2018-04-17T07:45:17.121Z,3.58
2018-04-17T07:47:57.670Z,3.90
2018-04-17T07:50:26.872Z,3.90
2018-04-17T07:52:56.226Z,3.75
2018-04-17T07:55:27.211Z,4.40
2018-04-17T07:57:56.530Z,4.87
2018-04-17T08:00:25.857Z,9.02
2018-04-17T08:02:55.181Z,5.53
2018-04-17T08:05:24.457Z,4.57
2018-04-17T08:07:53.934Z,2.90
2018-04-17T08:10:23.449Z,3.15
2018-04-17T08:12:52.527Z,3.20
2018-04-17T08:15:21.661Z,3.20
2018-04-17T08:17:50.976Z,4.87
2018-04-17T08:20:21.202Z,4.28
2018-04-17T08:22:50.481Z,3.28
2018-04-17T08:25:19.783Z,3.70
2018-04-17T08:27:49.103Z,3.42
2018-04-17T08:30:18.121Z,3.37
2018-04-17T08:32:47.317Z,2.95
2018-04-17T08:35:16.776Z,3.10
2018-04-17T08:37:47.068Z,3.97
2018-04-17T08:40:16.656Z,3.28
2018-04-17T08:42:45.861Z,4.82
2018-04-17T08:45:15.218Z,4.15
2018-04-17T08:47:44.291Z,5.03
2018-04-17T08:50:13.347Z,5.50
2018-04-17T08:52:42.691Z,5.05
2018-04-17T08:55:11.810Z,8.52
2018-04-17T08:57:42.471Z,10.73
2018-04-17T09:00:12.023Z,4.53
2018-04-17T09:02:41.790Z,6.10
2018-04-17T09:05:10.837Z,4.40
2018-04-17T09:07:41.129Z,5.12
2018-04-17T09:10:11.396Z,4.93
2018-04-17T09:12:40.868Z,4.75
2018-04-17T09:15:10.409Z,3.90
2018-04-17T09:17:41.102Z,5.60
2018-04-17T09:20:10.398Z,5.00
2018-04-17T09:22:39.889Z,7.62
2018-04-17T09:25:09.238Z,7.62
2018-04-17T09:27:38.742Z,5.93
2018-04-17T09:30:08.124Z,5.78
2018-04-17T09:32:37.415Z,4.60
2018-04-17T09:35:06.675Z,6.07
2018-04-17T09:37:35.765Z,5.87
2018-04-17T09:40:05.024Z,5.15
2018-04-17T09:42:34.070Z,7.05
2018-04-17T09:45:03.453Z,5.87
2018-04-17T09:47:32.921Z,6.15
2018-04-17T09:50:02.347Z,3.55
2018-04-17T09:52:31.661Z,4.60
2018-04-17T09:55:01.267Z,4.87
2018-04-17T09:57:30.957Z,3.80
2018-04-17T10:00:01.395Z,3.80
2018-04-17T10:02:31.055Z,5.35
2018-04-17T10:05:00.143Z,3.22
2018-04-17T10:07:29.207Z,3.35
2018-04-17T10:09:58.353Z,3.78
2018-04-17T10:12:29.554Z,3.97
2018-04-17T10:14:58.934Z,4.10
2018-04-17T10:17:28.175Z,4.20
2018-04-17T10:19:57.227Z,3.95
2018-04-17T10:22:26.537Z,4.18
2018-04-17T10:24:55.870Z,3.65
2018-04-17T10:27:25.408Z,3.00
2018-04-17T10:29:54.709Z,3.75
2018-04-17T10:32:24.056Z,4.68
2018-04-17T10:34:53.243Z,3.83
2018-04-17T10:37:22.736Z,4.65
2018-04-17T10:39:52.096Z,3.15
2018-04-17T10:42:21.341Z,4.00
2018-04-17T10:44:50.557Z,3.50
2018-04-17T10:47:19.746Z,3.62
2018-04-17T10:49:49.251Z,3.22
2018-04-17T10:52:18.327Z,5.20
2018-04-17T10:54:47.835Z,3.65
2018-04-17T10:57:17.203Z,3.60
2018-04-17T10:59:47.627Z,4.12
2018-04-17T11:02:18.495Z,3.62
2018-04-17T11:04:47.620Z,2.85
2018-04-17T11:07:17.740Z,3.85
2018-04-17T11:09:47.167Z,4.45
2018-04-17T11:12:16.630Z,4.22
2018-04-17T11:14:45.970Z,5.07
2018-04-17T11:17:15.075Z,8.90
2018-04-17T11:19:44.325Z,4.40
2018-04-17T11:22:13.516Z,5.72
2018-04-17T11:24:42.869Z,5.30
2018-04-17T11:27:11.880Z,3.85
2018-04-17T11:29:41.442Z,5.50
2018-04-17T11:32:10.937Z,5.00
2018-04-17T11:34:39.973Z,4.50
2018-04-17T11:37:09.642Z,5.22
2018-04-17T11:39:38.905Z,6.37
2018-04-17T11:42:08.214Z,5.97
2018-04-17T11:44:37.751Z,7.95
2018-04-17T11:47:07.054Z,8.55
2018-04-17T11:49:36.337Z,6.87
2018-04-17T11:52:05.441Z,8.80
2018-04-17T11:54:34.532Z,4.80
2018-04-17T11:57:04.145Z,5.22
2018-04-17T11:59:33.776Z,5.30
2018-04-17T12:02:03.256Z,4.53
2018-04-17T12:04:34.214Z,3.92
2018-04-17T12:07:03.539Z,3.72
2018-04-17T12:09:32.809Z,4.32
2018-04-17T12:12:01.824Z,4.43
2018-04-17T12:14:31.234Z,4.90
2018-04-17T12:17:00.206Z,4.85
2018-04-17T12:19:29.570Z,3.80
2018-04-17T12:22:00.331Z,5.25
2018-04-17T12:24:29.626Z,3.60
2018-04-17T12:26:58.657Z,5.53
2018-04-17T12:29:27.977Z,4.85
2018-04-17T12:31:57.009Z,4.57
2018-04-17T12:34:26.049Z,3.12
2018-04-17T12:36:55.243Z,3.28
2018-04-17T12:39:24.483Z,3.60
2018-04-17T12:41:53.796Z,4.07
2018-04-17T12:44:24.198Z,3.17
2018-04-17T12:46:53.449Z,3.55
2018-04-17T12:49:22.724Z,3.75
2018-04-17T12:51:51.861Z,4.37
2018-04-17T12:54:22.648Z,3.08
2018-04-17T12:56:52.345Z,3.28
2018-04-17T12:59:21.709Z,3.87
2018-04-17T13:01:51.113Z,4.90
2018-04-17T13:04:22.552Z,3.40
2018-04-17T13:06:53.002Z,4.18
2018-04-17T13:09:22.086Z,3.92
2018-04-17T13:11:51.406Z,3.80
2018-04-17T13:14:20.471Z,3.60
2018-04-17T13:16:49.338Z,3.70
2018-04-17T13:19:18.654Z,3.05
2018-04-17T13:21:48.925Z,3.03
2018-04-17T13:24:23.196Z,2.90
2018-04-17T13:26:52.746Z,4.20
2018-04-17T13:29:21.763Z,4.30
2018-04-17T13:31:50.935Z,4.35
2018-04-17T13:34:20.220Z,4.18
2018-04-17T13:36:49.535Z,2.97
2018-04-17T13:39:18.818Z,3.17
2018-04-17T13:41:48.309Z,3.12
2018-04-17T13:44:17.625Z,4.95
2018-04-17T13:46:47.119Z,3.20
2018-04-17T13:49:16.469Z,3.45
2018-04-17T13:51:45.741Z,3.25
2018-04-17T13:54:14.989Z,3.30
2018-04-17T13:56:44.202Z,2.92
2018-04-17T13:59:13.602Z,3.97
2018-04-17T14:01:42.682Z,4.25
2018-04-17T14:04:11.868Z,4.45
2018-04-17T14:06:41.089Z,3.67
2018-04-17T14:09:11.423Z,3.60
2018-04-17T14:11:40.775Z,4.45
2018-04-17T14:14:09.840Z,3.47
2018-04-17T14:16:39.753Z,3.10
2018-04-17T14:19:10.135Z,3.05
2018-04-17T14:21:39.129Z,4.40
2018-04-17T14:24:08.676Z,3.65
2018-04-17T14:26:38.998Z,4.30
2018-04-17T14:29:07.814Z,3.30
2018-04-17T14:31:36.902Z,2.83
2018-04-17T19:22:07.858Z,1.70
2018-04-17T19:24:44.844Z,1.33
2018-04-17T19:27:23.503Z,1.50
2018-04-17T19:29:53.161Z,1.90
2018-04-17T19:32:22.268Z,3.47
2018-04-17T19:34:51.439Z,2.00
2018-04-17T19:37:20.520Z,1.03
2018-04-17T19:39:50.479Z,1.60
2018-04-17T19:42:19.933Z,1.30
2018-04-17T19:44:49.641Z,0.80
2018-04-17T19:47:19.373Z,1.17
2018-04-17T19:49:48.872Z,1.47
2018-04-17T19:52:18.179Z,1.87
2018-04-17T19:54:47.336Z,2.20
2018-04-17T19:57:16.588Z,3.50
2018-04-17T19:59:45.873Z,2.23
2018-04-17T20:02:14.990Z,2.33
2018-04-17T20:04:44.283Z,1.27
2018-04-17T20:07:13.665Z,1.90
2018-04-17T20:09:42.968Z,1.00
2018-04-17T20:12:13.050Z,1.00
2018-04-17T20:14:42.506Z,1.20
2018-04-17T20:17:11.774Z,1.00
2018-04-17T20:19:41.234Z,1.20
2018-04-17T20:22:12.012Z,1.37
2018-04-17T20:24:42.403Z,1.10
2018-04-17T20:27:11.749Z,1.33
2018-04-17T20:29:41.307Z,1.23
2018-04-17T20:32:11.026Z,1.00
2018-04-17T20:34:40.205Z,1.30
2018-04-17T20:37:09.341Z,1.33
2018-04-17T20:39:38.548Z,1.23
2018-04-17T20:42:07.706Z,1.30
2018-04-17T20:44:37.103Z,1.17
2018-04-17T20:47:06.232Z,1.10
2018-04-17T20:49:35.364Z,1.20
2018-04-17T20:52:04.847Z,0.90
2018-04-17T20:54:34.142Z,1.10
2018-04-17T20:57:03.591Z,1.50
2018-04-17T20:59:32.907Z,1.43
2018-04-17T21:02:02.615Z,1.40
2018-04-17T21:04:31.600Z,1.40
2018-04-17T21:07:00.812Z,1.20
2018-04-17T21:09:30.825Z,1.37
2018-04-17T21:12:00.068Z,1.23
2018-04-17T21:14:29.435Z,1.80
2018-04-17T21:16:59.133Z,1.37
2018-04-17T21:19:28.906Z,1.70
2018-04-17T21:21:58.213Z,0.90
2018-04-17T21:24:28.554Z,0.80
2018-04-17T21:26:59.257Z,0.90
2018-04-17T21:29:28.517Z,1.10
2018-04-17T21:31:58.491Z,0.90
2018-04-17T21:34:28.997Z,1.00
2018-04-17T21:36:58.647Z,1.20
2018-04-17T21:39:31.404Z,1.00
2018-04-17T21:42:00.380Z,1.10
2018-04-17T21:44:29.566Z,1.17
2018-04-17T21:46:58.830Z,1.10
2018-04-17T21:49:28.954Z,1.60
2018-04-17T21:51:58.270Z,1.00
2018-04-17T21:54:27.742Z,1.20
2018-04-17T21:56:57.981Z,1.00
2018-04-17T21:59:27.187Z,0.80
2018-04-17T22:01:56.480Z,1.10
2018-04-17T22:04:25.643Z,1.70
2018-04-17T22:06:54.845Z,1.37
2018-04-17T22:09:24.154Z,1.27
2018-04-17T22:11:54.353Z,1.20
2018-04-17T22:14:23.576Z,1.00
2018-04-17T22:16:53.300Z,1.00
2018-04-17T22:19:22.635Z,0.60
2018-04-17T22:21:51.916Z,0.60
2018-04-17T22:24:21.680Z,1.00
2018-04-17T22:26:51.709Z,1.10
2018-04-17T22:29:21.190Z,1.13
2018-04-17T22:31:50.408Z,0.63
2018-04-17T22:34:20.521Z,0.97
2018-04-17T22:36:49.841Z,0.70
2018-04-17T22:39:19.842Z,1.03
2018-04-17T22:41:49.711Z,1.07
2018-04-17T22:44:18.850Z,1.00
2018-04-17T22:46:48.976Z,0.90
2018-04-17T22:49:18.265Z,0.70
2018-04-17T22:51:48.438Z,0.80
2018-04-17T22:54:17.708Z,0.87
2018-04-17T22:56:47.199Z,0.70
2018-04-17T22:59:16.882Z,1.00
2018-04-17T23:01:46.135Z,0.80
2018-04-17T23:04:16.042Z,0.80
2018-04-17T23:06:46.953Z,1.20
2018-04-17T23:09:16.431Z,1.20
2018-04-17T23:11:47.697Z,1.40
2018-04-17T23:14:18.739Z,1.60
2018-04-17T23:16:49.477Z,1.10
2018-04-17T23:19:19.715Z,0.93
2018-04-17T23:21:49.596Z,1.17
2018-04-17T23:24:19.601Z,2.10
2018-04-17T23:26:49.497Z,2.20
2018-04-17T23:29:19.617Z,1.40
2018-04-17T23:31:48.662Z,0.97
2018-04-17T23:34:17.840Z,1.10
2018-04-17T23:36:46.685Z,1.10
2018-04-17T23:39:15.910Z,1.20
2018-04-17T23:41:44.980Z,1.10
2018-04-17T23:44:14.064Z,1.00
2018-04-17T23:46:43.571Z,1.10
2018-04-17T23:49:12.680Z,1.13
2018-04-17T23:51:41.747Z,1.97
2018-04-17T23:54:10.831Z,1.47
2018-04-17T23:56:39.919Z,1.00
2018-04-17T23:59:09.254Z,1.23
